createdAt,value
2022-10-14T00:02:03.592Z,10.77
2022-10-14T00:05:05.546Z,13.20
2022-10-14T00:08:08.823Z,12.63
2022-10-14T00:11:19.265Z,11.17
2022-10-14T00:14:21.790Z,11.40
2022-10-14T00:17:24.557Z,10.48
2022-10-14T00:20:29.720Z,13.10
2022-10-14T00:23:31.321Z,9.00
2022-10-14T00:26:35.624Z,10.95
2022-10-14T00:29:37.156Z,12.43
2022-10-14T00:32:38.764Z,13.75
2022-10-14T00:35:40.265Z,14.32
2022-10-14T00:38:41.892Z,10.07
2022-10-14T00:41:44.379Z,16.83
2022-10-14T00:44:45.918Z,14.18
2022-10-14T00:47:50.221Z,12.68
2022-10-14T00:53:55.938Z,8.97
2022-10-14T00:56:57.834Z,10.68
2022-10-14T01:00:08.374Z,17.58
2022-10-14T01:03:17.289Z,9.80
2022-10-14T01:06:41.308Z,7.82
2022-10-14T01:10:20.617Z,12.20
2022-10-14T01:13:35.115Z,11.35
2022-10-14T01:16:57.004Z,10.25
2022-10-14T01:20:25.918Z,11.80
2022-10-14T01:23:52.978Z,11.93
2022-10-14T01:27:25.185Z,11.55
2022-10-14T01:30:32.889Z,10.32
2022-10-14T01:33:38.453Z,17.10
2022-10-14T01:36:52.029Z,11.30
2022-10-14T01:40:02.737Z,11.83
2022-10-14T01:43:05.729Z,12.13
2022-10-14T01:46:10.226Z,11.57
2022-10-14T01:49:24.078Z,11.98
2022-10-14T01:52:31.188Z,10.05
2022-10-14T01:55:40.081Z,12.88
2022-10-14T01:58:43.589Z,14.63
2022-10-14T02:01:45.209Z,9.20
2022-10-14T02:04:51.004Z,11.20
2022-10-14T02:08:01.953Z,10.85
2022-10-14T02:11:16.887Z,13.60
2022-10-14T02:14:44.981Z,11.02
2022-10-14T02:18:05.392Z,10.10
2022-10-14T02:21:46.221Z,10.98
2022-10-14T02:24:53.105Z,11.18
2022-10-14T02:27:55.001Z,11.40
2022-10-14T02:31:08.013Z,11.30
2022-10-14T02:34:13.756Z,10.20
2022-10-14T02:37:17.744Z,11.05
2022-10-14T02:40:38.461Z,13.85
2022-10-14T02:43:40.001Z,13.50
2022-10-14T02:46:43.220Z,11.43
2022-10-14T02:49:45.096Z,11.63
2022-10-14T02:52:46.944Z,9.00
2022-10-14T02:55:49.029Z,13.30
2022-10-14T02:58:50.564Z,10.63
2022-10-14T03:01:52.094Z,12.30
2022-10-14T03:04:54.454Z,11.63
2022-10-14T03:07:57.423Z,14.13
2022-10-14T03:11:01.237Z,11.80
2022-10-14T03:14:02.892Z,13.30
2022-10-14T03:17:04.816Z,11.82
2022-10-14T03:20:08.849Z,10.13
2022-10-14T03:23:19.264Z,11.57
2022-10-14T03:26:24.285Z,11.63
2022-10-14T03:29:26.696Z,11.77
2022-10-14T03:32:34.483Z,12.68
2022-10-14T03:36:01.963Z,13.13
2022-10-14T03:39:15.436Z,14.43
2022-10-14T03:42:23.777Z,11.65
2022-10-14T03:45:25.860Z,11.52
2022-10-14T03:48:27.377Z,16.02
2022-10-14T03:51:32.679Z,9.85
2022-10-14T03:54:46.177Z,12.15
2022-10-14T04:00:52.760Z,12.75
2022-10-14T04:04:08.208Z,12.32
2022-10-14T04:07:11.051Z,16.92
2022-10-14T04:10:13.035Z,8.85
2022-10-14T04:13:19.738Z,12.40
2022-10-14T04:16:21.699Z,10.93
2022-10-14T04:19:40.951Z,10.10
2022-10-14T04:22:43.096Z,11.00
2022-10-14T04:25:46.491Z,9.40
2022-10-14T04:28:48.386Z,12.80
2022-10-14T04:32:03.651Z,11.32
2022-10-14T04:35:06.331Z,14.55
2022-10-14T04:38:08.342Z,12.57
2022-10-14T04:41:17.311Z,12.93
2022-10-14T04:44:22.610Z,12.85
2022-10-14T04:47:28.084Z,11.60
2022-10-14T04:50:33.806Z,12.55
2022-10-14T04:54:05.151Z,11.23
2022-10-14T04:57:14.740Z,12.40
2022-10-14T05:00:20.700Z,10.60
2022-10-14T05:03:34.404Z,11.27
2022-10-14T05:06:37.412Z,10.18
2022-10-14T05:09:43.129Z,12.63
2022-10-14T05:12:57.633Z,21.10
2022-10-14T05:16:04.227Z,13.48
2022-10-14T05:19:06.829Z,10.93
2022-10-14T05:22:12.821Z,10.70
2022-10-14T05:25:18.656Z,12.90
2022-10-14T05:28:20.238Z,12.38
2022-10-14T05:31:23.723Z,12.75
2022-10-14T05:34:45.548Z,10.15
2022-10-14T05:38:02.009Z,9.68
2022-10-14T05:41:09.523Z,12.25
2022-10-14T05:44:11.778Z,11.23
2022-10-14T05:47:14.163Z,9.60
2022-10-14T05:50:20.286Z,13.02
2022-10-14T05:53:22.665Z,9.30
2022-10-14T05:56:28.218Z,10.38
2022-10-14T05:59:30.043Z,11.10
2022-10-14T06:02:32.794Z,11.20
2022-10-14T06:05:37.555Z,9.07
2022-10-14T06:08:39.333Z,9.82
2022-10-14T06:11:40.977Z,10.77
2022-10-14T06:14:42.655Z,12.20
2022-10-14T06:17:44.591Z,9.00
2022-10-14T06:20:52.562Z,10.32
2022-10-14T06:24:14.932Z,7.35
2022-10-14T06:27:18.178Z,9.52
2022-10-14T06:30:19.789Z,9.90
2022-10-14T06:33:22.056Z,8.65
2022-10-14T06:36:23.975Z,9.80
2022-10-14T06:39:25.587Z,6.72
2022-10-14T06:42:27.315Z,9.68
2022-10-14T06:45:29.134Z,11.00
2022-10-14T06:48:30.998Z,9.13
2022-10-14T06:51:32.472Z,9.07
2022-10-14T06:54:39.229Z,9.52
2022-10-14T06:57:41.488Z,8.68
2022-10-14T07:00:47.204Z,6.93
2022-10-14T07:03:52.817Z,8.40
2022-10-14T07:06:58.419Z,10.02
2022-10-14T07:09:59.973Z,11.05
2022-10-14T07:13:01.464Z,11.18
2022-10-14T07:16:03.289Z,11.30
2022-10-14T07:19:04.736Z,7.28
2022-10-14T07:22:06.317Z,10.90
2022-10-14T07:25:08.312Z,12.50
2022-10-14T07:28:09.879Z,9.48
2022-10-14T07:31:13.028Z,10.40
2022-10-14T07:34:14.528Z,10.83
2022-10-14T07:37:15.958Z,6.63
2022-10-14T07:40:17.586Z,9.80
2022-10-14T07:43:19.032Z,11.60
2022-10-14T07:46:29.794Z,10.05
2022-10-14T07:49:31.640Z,8.80
2022-10-14T07:52:33.484Z,11.07
2022-10-14T07:55:34.925Z,13.07
2022-10-14T07:58:38.918Z,9.48
2022-10-14T08:01:43.038Z,9.82
2022-10-14T08:04:45.012Z,12.80
2022-10-14T08:07:46.519Z,11.75
2022-10-14T08:10:47.986Z,8.15
2022-10-14T08:13:50.521Z,10.75
2022-10-14T08:16:51.936Z,12.77
2022-10-14T08:19:53.515Z,8.85
2022-10-14T08:22:56.036Z,8.10
2022-10-14T08:25:57.485Z,8.93
2022-10-14T08:29:01.191Z,12.35
2022-10-14T08:32:02.687Z,8.18
2022-10-14T08:35:04.489Z,8.65
2022-10-14T08:38:06.133Z,7.22
2022-10-14T08:41:36.797Z,8.70
2022-10-14T08:44:50.612Z,7.10
2022-10-14T08:47:57.163Z,7.32
2022-10-14T08:51:17.090Z,7.32
2022-10-14T08:54:30.520Z,8.50
2022-10-14T08:57:41.785Z,11.20
2022-10-14T09:00:47.519Z,7.63
2022-10-14T09:03:56.989Z,8.85
2022-10-14T09:06:59.455Z,8.20
2022-10-14T09:10:07.323Z,10.98
2022-10-14T09:13:18.795Z,6.55
2022-10-14T09:16:25.274Z,8.18
2022-10-14T09:19:44.316Z,8.25
2022-10-14T09:22:56.768Z,11.65
2022-10-14T09:26:01.819Z,9.77
2022-10-14T09:29:03.520Z,8.68
2022-10-14T09:32:12.811Z,11.93
2022-10-14T09:35:25.893Z,8.30
2022-10-14T09:38:27.673Z,7.43
2022-10-14T09:41:31.060Z,5.70
2022-10-14T09:44:32.524Z,7.93
2022-10-14T09:48:07.339Z,12.52
2022-10-14T09:51:29.195Z,10.63
2022-10-14T09:54:32.338Z,5.82
2022-10-14T09:57:33.894Z,6.00
2022-10-14T10:00:37.729Z,6.35
2022-10-14T10:03:41.031Z,5.35
2022-10-14T10:06:53.156Z,7.45
2022-10-14T10:09:56.933Z,9.15
2022-10-14T10:12:58.719Z,5.15
2022-10-14T10:16:03.817Z,5.50
2022-10-14T10:19:27.977Z,5.15
2022-10-14T10:22:34.069Z,4.95
2022-10-14T10:25:35.538Z,4.80
2022-10-14T10:28:37.066Z,5.10
2022-10-14T10:31:52.471Z,3.63
2022-10-14T10:35:03.104Z,2.17
2022-10-14T10:38:22.723Z,2.13
2022-10-14T10:41:59.195Z,2.85
2022-10-14T10:45:16.110Z,2.60
2022-10-14T10:48:31.878Z,2.17
2022-10-14T10:51:56.128Z,3.17
2022-10-14T10:55:00.384Z,1.67
2022-10-14T10:58:27.517Z,2.38
2022-10-14T11:02:20.801Z,2.45
2022-10-14T11:05:37.195Z,2.15
2022-10-14T11:09:15.035Z,2.22
2022-10-14T11:12:28.527Z,1.83
2022-10-14T11:15:41.889Z,1.80
2022-10-14T11:18:54.523Z,1.27
2022-10-14T11:22:28.723Z,3.72
2022-10-14T11:25:53.593Z,4.32
2022-10-14T11:29:13.347Z,2.55
2022-10-14T11:32:48.613Z,2.17
2022-10-14T11:36:16.113Z,2.55
2022-10-14T11:39:42.021Z,2.47
2022-10-14T11:42:52.499Z,3.87
2022-10-14T11:46:00.796Z,4.88
2022-10-14T11:49:13.849Z,3.35
2022-10-14T11:52:23.651Z,3.20
2022-10-14T11:55:29.736Z,2.45
2022-10-14T11:58:36.175Z,1.85
2022-10-14T12:01:44.010Z,1.88
2022-10-14T12:04:55.734Z,4.10
2022-10-14T12:08:06.205Z,3.28
2022-10-14T12:11:16.769Z,1.88
2022-10-14T12:14:24.121Z,1.35
2022-10-14T12:17:57.816Z,1.17
2022-10-14T12:21:13.603Z,2.58
2022-10-14T12:24:19.029Z,2.22
2022-10-14T12:27:25.618Z,1.70
2022-10-14T12:30:42.681Z,1.20
2022-10-14T12:34:15.878Z,1.58
2022-10-14T12:37:36.948Z,2.28
2022-10-14T12:40:48.677Z,2.95
2022-10-14T12:44:07.245Z,3.78
2022-10-14T12:47:35.821Z,3.83
2022-10-14T12:50:39.638Z,2.03
2022-10-14T12:53:51.517Z,2.28
2022-10-14T12:57:06.292Z,2.25
2022-10-14T13:00:29.456Z,1.65
2022-10-14T13:03:36.783Z,2.65
2022-10-14T13:06:44.867Z,1.92
2022-10-14T13:09:47.308Z,1.90
2022-10-14T13:12:48.762Z,1.83
2022-10-14T13:15:51.777Z,2.20
2022-10-14T13:18:58.298Z,2.00
2022-10-14T13:22:28.454Z,2.15
2022-10-14T13:25:33.199Z,2.80
2022-10-14T13:28:44.705Z,1.40
2022-10-14T13:32:22.762Z,1.58
2022-10-14T13:35:49.444Z,2.65
2022-10-14T13:39:00.607Z,2.08
2022-10-14T13:42:03.356Z,2.42
2022-10-14T13:45:11.961Z,1.85
2022-10-14T13:48:18.060Z,1.55
2022-10-14T13:51:37.567Z,1.30
2022-10-14T13:54:42.387Z,2.22
2022-10-14T13:58:10.958Z,1.25
2022-10-14T14:01:06.709Z,2.35
2022-10-14T14:04:22.465Z,1.00
2022-10-14T14:11:17.373Z,1.88
2022-10-14T14:14:21.389Z,1.75
2022-10-14T14:17:31.449Z,1.83
2022-10-14T14:20:35.197Z,2.78
2022-10-14T14:26:39.406Z,1.80
2022-10-14T14:29:43.993Z,1.75
2022-10-14T14:32:45.468Z,2.45
2022-10-14T14:35:55.171Z,2.22
2022-10-14T14:39:02.662Z,2.20
2022-10-14T14:42:04.152Z,1.40
2022-10-14T14:45:29.162Z,1.40
2022-10-14T14:48:32.661Z,2.75
2022-10-14T14:51:40.441Z,2.38
2022-10-14T14:54:46.904Z,1.08
2022-10-14T14:57:56.352Z,2.72
2022-10-14T15:00:58.086Z,1.65
2022-10-14T15:04:12.044Z,2.25
2022-10-14T15:07:21.820Z,1.23
2022-10-14T15:10:29.567Z,2.47
2022-10-14T15:13:40.078Z,1.20
2022-10-14T15:16:42.306Z,4.40
2022-10-14T15:19:44.535Z,3.65
2022-10-14T15:22:47.138Z,2.22
2022-10-14T15:25:58.229Z,1.02
2022-10-14T15:29:08.550Z,2.15
2022-10-14T15:32:15.265Z,1.25
2022-10-14T15:35:19.916Z,0.60
2022-10-14T15:38:21.837Z,1.00
2022-10-14T15:41:23.351Z,0.90
2022-10-14T15:44:24.776Z,2.20
2022-10-14T15:47:26.822Z,0.93
2022-10-14T15:50:28.419Z,1.08
2022-10-14T15:53:29.915Z,1.73
2022-10-14T15:56:31.333Z,3.03
2022-10-14T15:59:32.866Z,1.60
2022-10-14T16:02:43.342Z,0.90
2022-10-14T16:05:45.843Z,1.98
2022-10-14T16:08:48.888Z,3.38
2022-10-14T16:11:57.132Z,1.63
2022-10-14T16:14:59.059Z,1.50
2022-10-14T16:18:00.612Z,3.55
2022-10-14T16:21:02.190Z,3.35
2022-10-14T16:27:16.777Z,1.92
2022-10-14T16:30:18.363Z,2.05
2022-10-14T16:33:32.458Z,2.30
2022-10-14T16:36:38.037Z,1.92
2022-10-14T16:39:39.519Z,5.07
2022-10-14T16:42:41.008Z,3.85
2022-10-14T16:45:42.531Z,3.00
2022-10-14T16:48:44.541Z,3.35
2022-10-14T16:51:46.163Z,4.35
2022-10-14T16:54:47.717Z,3.58
2022-10-14T16:57:49.418Z,4.85
2022-10-14T17:00:51.680Z,3.40
2022-10-14T17:03:55.786Z,3.00
2022-10-14T17:06:57.995Z,3.08
2022-10-14T17:09:59.824Z,4.93
2022-10-14T17:13:02.021Z,4.82
2022-10-14T17:16:06.368Z,2.90
2022-10-14T17:19:08.261Z,3.00
2022-10-14T17:22:09.819Z,3.38
2022-10-14T17:25:12.116Z,4.78
2022-10-14T17:28:13.634Z,3.70
2022-10-14T17:31:17.740Z,2.08
2022-10-14T17:37:20.644Z,4.88
2022-10-14T17:40:22.166Z,4.32
2022-10-14T17:43:24.726Z,5.63
2022-10-14T17:46:29.133Z,6.07
2022-10-14T17:49:31.310Z,2.75
2022-10-14T17:52:32.820Z,2.47
2022-10-14T17:55:37.425Z,3.40
2022-10-14T17:58:39.741Z,2.75
2022-10-14T18:02:01.428Z,17.98
2022-10-14T18:05:02.748Z,17.20
2022-10-14T18:08:04.899Z,9.88
2022-10-14T18:11:11.109Z,7.85
2022-10-14T18:14:13.903Z,6.65
2022-10-14T18:17:15.518Z,6.20
2022-10-14T18:20:17.128Z,6.70
2022-10-14T18:23:18.576Z,7.45
2022-10-14T18:26:21.361Z,9.70
2022-10-14T18:29:23.523Z,6.88
2022-10-14T18:32:25.301Z,5.50
2022-10-14T18:35:27.891Z,4.05
2022-10-14T18:38:31.068Z,3.85
2022-10-14T18:41:33.423Z,4.93
2022-10-14T18:44:34.860Z,4.45
2022-10-14T18:47:36.318Z,5.18
2022-10-14T18:50:37.752Z,10.35
2022-10-14T18:53:40.768Z,6.22
2022-10-14T18:56:43.600Z,9.98
2022-10-14T18:59:45.196Z,7.65
2022-10-14T19:02:46.693Z,7.22
2022-10-14T19:05:48.183Z,7.03
2022-10-14T19:08:50.579Z,4.30
2022-10-14T19:11:52.602Z,3.67
2022-10-14T19:14:54.108Z,4.57
2022-10-14T19:17:58.808Z,8.80
2022-10-14T19:21:10.977Z,4.00
2022-10-14T19:24:13.517Z,4.93
2022-10-14T19:27:15.139Z,2.90
2022-10-14T19:30:16.677Z,2.42
2022-10-14T19:33:18.297Z,5.45
2022-10-14T19:36:21.961Z,1.90
2022-10-14T19:39:31.938Z,2.22
2022-10-14T19:42:36.656Z,1.95
2022-10-14T19:45:45.651Z,0.45
2022-10-14T19:48:50.488Z,1.27
2022-10-14T19:51:52.001Z,2.65
2022-10-14T19:54:53.441Z,0.73
2022-10-14T19:57:57.445Z,1.55
2022-10-14T20:04:01.980Z,1.50
2022-10-14T20:07:03.566Z,1.90
2022-10-14T20:10:05.713Z,1.05
2022-10-14T20:13:07.256Z,1.27
2022-10-14T20:16:11.016Z,0.80
2022-10-14T20:19:12.755Z,1.38
2022-10-14T20:22:14.364Z,2.83
2022-10-14T20:25:16.162Z,1.45
2022-10-14T20:28:20.940Z,0.43
2022-10-14T20:31:25.125Z,1.15
2022-10-14T20:34:26.816Z,0.90
2022-10-14T20:37:31.168Z,0.47
2022-10-14T20:40:36.048Z,0.70
2022-10-14T20:43:37.558Z,2.03
2022-10-14T20:46:39.114Z,0.55
2022-10-14T20:49:40.750Z,2.47
2022-10-14T20:52:42.797Z,1.35
2022-10-14T20:55:44.337Z,1.70
2022-10-14T20:58:45.823Z,0.38
2022-10-14T21:01:47.367Z,0.98
2022-10-14T21:04:52.754Z,1.00
2022-10-14T21:07:54.371Z,1.15
2022-10-14T21:11:04.048Z,0.63
2022-10-14T21:14:05.584Z,1.70
2022-10-14T21:17:07.800Z,1.15
2022-10-14T21:20:09.794Z,0.32
2022-10-14T21:23:11.403Z,1.00
2022-10-14T21:26:13.338Z,1.65
2022-10-14T21:29:15.244Z,1.27
2022-10-14T21:32:16.755Z,2.55
2022-10-14T21:35:18.340Z,0.40
2022-10-14T21:38:19.852Z,0.43
2022-10-14T21:41:21.316Z,0.32
2022-10-14T21:44:22.857Z,1.33
2022-10-14T21:47:24.444Z,0.60
2022-10-14T21:50:25.939Z,0.80
2022-10-14T21:53:28.923Z,0.50
2022-10-14T21:56:30.465Z,0.70
2022-10-14T21:59:32.103Z,1.05
2022-10-14T22:02:33.596Z,2.92
2022-10-14T22:05:35.408Z,1.38
2022-10-14T22:08:39.893Z,2.17
2022-10-14T22:11:42.027Z,1.42
2022-10-14T22:14:43.558Z,0.90
2022-10-14T22:17:45.035Z,0.80
2022-10-14T22:20:47.156Z,2.40
2022-10-14T22:23:49.442Z,2.90
2022-10-14T22:26:51.892Z,0.85
2022-10-14T22:29:53.381Z,0.60
2022-10-14T22:32:55.002Z,2.13
2022-10-14T22:36:07.953Z,1.55
2022-10-14T22:39:15.359Z,2.88
2022-10-14T22:42:16.948Z,2.15
2022-10-14T22:45:18.475Z,0.95
2022-10-14T22:48:19.955Z,0.65
2022-10-14T22:51:22.490Z,0.57
2022-10-14T22:54:24.127Z,0.70
2022-10-14T22:57:25.620Z,5.55
2022-10-14T23:00:27.186Z,1.77
2022-10-14T23:03:28.824Z,0.55
2022-10-14T23:06:31.657Z,1.00
2022-10-14T23:09:33.235Z,5.32
2022-10-14T23:12:34.766Z,0.40
2022-10-14T23:15:36.572Z,0.57
2022-10-14T23:18:38.886Z,0.40
2022-10-14T23:21:40.512Z,2.83
2022-10-14T23:24:42.165Z,0.57
2022-10-14T23:27:43.899Z,0.63
2022-10-14T23:30:45.442Z,1.35
2022-10-14T23:33:48.988Z,0.68
2022-10-14T23:36:50.517Z,1.73
2022-10-14T23:39:52.396Z,1.42
2022-10-14T23:42:53.911Z,5.10
2022-10-14T23:45:55.439Z,0.75
2022-10-14T23:49:06.940Z,0.55
2022-10-14T23:52:15.727Z,1.65
2022-10-14T23:55:17.266Z,1.30
2022-10-14T23:58:18.874Z,2.75
